Time;durP1;ratioP1;P1;durP2;ratioP2;P2;SDS_P1;SDS_P2;PMS_P1;PMS_P2;Temp;Humidity;BMP_temperature;BMP_pressure;BME280_temperature;BME280_humidity;BME280_pressure;Samples;Min_cycle;Max_cycle;Signal;HPM_P1;HPM_P2
2023/05/29 05:00:13;;;;;;;;;3.00;2.00;;;;;20.23;50.92;64428.47;6246143;22;46401;-80
2023/05/29 05:02:40;;;;;;;;;2.00;2.00;;;;;20.28;51.07;64342.84;6361608;22;45689;-80
2023/05/29 05:05:06;;;;;;;;;3.00;3.00;;;;;20.26;50.71;64184.50;6366174;22;46969;-80
2023/05/29 05:07:31;;;;;;;;;4.00;3.00;;;;;20.01;51.05;64195.94;6366686;22;45430;-80
2023/05/29 05:09:57;;;;;;;;;2.67;2.00;;;;;20.26;50.93;64323.97;6367262;22;45352;-80
2023/05/29 05:12:22;;;;;;;;;2.33;2.33;;;;;20.20;50.90;64245.97;6367771;22;45670;-80
2023/05/29 05:14:47;;;;;;;;;6.67;3.33;;;;;20.16;50.49;64086.00;6366922;22;46056;-81
2023/05/29 05:17:13;;;;;;;;;3.33;2.67;;;;;20.27;50.48;64199.56;6367149;22;45295;-81
2023/05/29 05:19:38;;;;;;;;;2.67;2.67;;;;;20.19;51.13;64067.31;6366678;22;45267;-80
2023/05/29 05:22:04;;;;;;;;;2.00;2.00;;;;;20.29;50.74;64019.38;6366707;22;45469;-80
2023/05/29 05:24:29;;;;;;;;;4.00;4.00;;;;;20.30;51.26;63830.06;6367096;22;46125;-81
2023/05/29 05:26:54;;;;;;;;;3.67;2.67;;;;;20.20;50.65;63741.25;6366907;22;46545;-80
2023/05/29 05:29:20;;;;;;;;;2.33;2.33;;;;;20.28;51.02;63706.63;6338935;22;45374;-80
2023/05/29 05:31:45;;;;;;;;;1.00;1.00;;;;;20.20;50.68;63524.59;6366850;22;45465;-81
2023/05/29 05:34:10;;;;;;;;;3.33;2.67;;;;;20.28;50.97;63371.38;6364518;22;47114;-83
2023/05/29 05:36:36;;;;;;;;;2.67;2.67;;;;;20.30;51.10;63196.56;6367212;22;55899;-81
2023/05/29 05:39:02;;;;;;;;;3.33;3.33;;;;;20.21;51.06;63176.56;6364368;22;45293;-82
2023/05/29 05:41:27;;;;;;;;;3.00;3.00;;;;;20.27;51.53;62989.50;6368162;22;45308;-82
2023/05/29 05:43:53;;;;;;;;;2.67;2.67;;;;;20.29;51.06;62940.72;6366978;22;46005;-82
2023/05/29 05:46:18;;;;;;;;;3.00;3.00;;;;;20.32;51.31;62984.78;6366897;22;45358;-81
2023/05/29 05:48:43;;;;;;;;;3.00;3.00;;;;;20.27;51.38;62738.00;6366363;22;45368;-81
2023/05/29 05:51:10;;;;;;;;;4.00;4.00;;;;;20.27;51.47;62745.50;6363953;22;45313;-82
2023/05/29 05:53:35;;;;;;;;;3.00;3.00;;;;;20.25;51.21;62722.41;6365367;22;46858;-82
2023/05/29 05:56:01;;;;;;;;;2.00;2.00;;;;;20.33;51.35;62666.22;6366266;22;45373;-81
2023/05/29 05:58:26;;;;;;;;;1.33;1.33;;;;;20.34;51.50;62635.09;6364392;22;45408;-82
2023/05/29 06:00:52;;;;;;;;;3.67;2.00;;;;;20.21;51.47;62533.09;6365469;22;45346;-82
2023/05/29 06:03:18;;;;;;;;;2.00;2.00;;;;;20.21;51.63;62514.88;6366569;22;46167;-81
2023/05/29 06:05:43;;;;;;;;;2.67;2.67;;;;;20.31;50.78;62288.66;6366675;22;45386;-81
2023/05/29 06:08:08;;;;;;;;;2.33;2.33;;;;;20.35;50.99;62341.25;6339226;22;45323;-81
2023/05/29 06:10:34;;;;;;;;;2.67;2.67;;;;;20.30;51.22;62357.28;6367658;22;45416;-81
2023/05/29 06:13:00;;;;;;;;;2.33;1.00;;;;;20.41;51.38;62235.09;6367507;22;46059;-82
2023/05/29 06:15:26;;;;;;;;;3.33;3.33;;;;;20.30;51.81;62156.75;6366524;22;45397;-81
2023/05/29 06:17:52;;;;;;;;;2.00;2.00;;;;;20.43;50.93;62149.28;6366550;22;45343;-81
2023/05/29 06:20:17;;;;;;;;;3.33;1.67;;;;;20.41;51.49;61959.44;6368818;22;45470;-81
2023/05/29 06:22:43;;;;;;;;;2.33;2.33;;;;;20.43;51.44;61996.44;6366787;22;46713;-80
2023/05/29 06:25:09;;;;;;;;;3.00;3.00;;;;;20.38;51.30;61867.72;6367056;22;45426;-79
2023/05/29 06:27:35;;;;;;;;;3.00;3.00;;;;;20.50;51.39;61777.63;6366828;22;45475;-80
2023/05/29 06:30:00;;;;;;;;;2.00;2.00;;;;;20.42;51.50;61705.78;6366873;22;45468;-82
2023/05/29 06:32:27;;;;;;;;;4.33;3.00;;;;;20.53;51.48;61746.50;6367600;22;45451;-80
2023/05/29 06:34:52;;;;;;;;;3.33;2.00;;;;;20.57;51.50;61626.91;6365138;22;45370;-81
2023/05/29 06:37:18;;;;;;;;;2.67;1.00;;;;;20.57;50.99;61629.59;6367542;22;45477;-80
2023/05/29 06:39:46;;;;;;;;;1.00;1.00;;;;;20.59;50.92;61551.78;6368455;22;45377;-80
2023/05/29 06:42:12;;;;;;;;;2.67;2.00;;;;;20.62;51.11;61439.13;6334994;22;47224;-80
2023/05/29 06:44:37;;;;;;;;;3.33;2.00;;;;;20.61;51.46;61456.84;6366969;22;45341;-79
2023/05/29 06:47:02;;;;;;;;;3.33;2.00;;;;;20.61;50.97;61417.16;6369012;22;45326;-80
2023/05/29 06:49:28;;;;;;;;;1.00;1.00;;;;;20.68;51.14;61375.78;6369735;22;45483;-81
2023/05/29 06:51:53;;;;;;;;;3.00;1.67;;;;;20.67;51.31;61304.97;6367987;22;46022;-79
2023/05/29 06:54:18;;;;;;;;;3.67;3.67;;;;;20.63;50.74;61341.50;6366939;22;45364;-80
2023/05/29 06:56:43;;;;;;;;;4.33;4.00;;;;;20.75;50.88;61198.13;6364234;22;46223;-80
2023/05/29 06:59:09;;;;;;;;;2.00;2.00;;;;;20.77;51.27;61127.84;6369035;22;45346;-80
2023/05/29 07:01:35;;;;;;;;;3.00;3.00;;;;;20.66;51.48;61087.22;6366054;22;46411;-80
2023/05/29 07:04:00;;;;;;;;;2.00;2.00;;;;;20.78;50.99;61179.84;6366441;22;45426;-81
2023/05/29 07:06:26;;;;;;;;;16.00;13.00;;;;;20.83;51.18;61163.69;6366749;22;45891;-82
2023/05/29 07:08:51;;;;;;;;;4.67;4.00;;;;;20.78;51.16;61042.53;6369105;22;45750;-82
2023/05/29 07:11:16;;;;;;;;;3.33;2.67;;;;;20.83;50.89;60962.50;6367603;22;45392;-82
2023/05/29 07:13:42;;;;;;;;;1.33;1.33;;;;;20.82;51.32;60926.06;6366798;22;45538;-84
2023/05/29 07:16:07;;;;;;;;;1.33;1.33;;;;;20.95;50.60;60929.03;6366971;22;45393;-83
2023/05/29 07:18:32;;;;;;;;;2.67;2.00;;;;;20.99;50.85;60806.63;6366868;22;45321;-83
2023/05/29 07:21:00;;;;;;;;;2.00;2.00;;;;;20.84;51.16;60786.53;6366859;22;45434;-84
2023/05/29 07:23:26;;;;;;;;;2.00;2.00;;;;;20.97;51.01;60526.03;6367683;22;45398;-84
2023/05/29 07:25:51;;;;;;;;;2.00;2.00;;;;;21.06;51.35;60462.50;6367307;22;45240;-84
2023/05/29 07:28:19;;;;;;;;;3.67;3.67;;;;;21.05;51.21;60445.88;6366808;22;45453;-87
2023/05/29 07:30:44;;;;;;;;;3.67;2.33;;;;;21.10;51.22;60460.81;6367283;22;45535;-84
2023/05/29 07:33:10;;;;;;;;;2.33;2.33;;;;;21.09;51.21;60347.56;6367690;22;45425;-84
2023/05/29 07:35:35;;;;;;;;;2.33;2.33;;;;;21.07;50.92;60353.53;6339619;22;45448;-83
2023/05/29 07:38:01;;;;;;;;;2.67;2.00;;;;;21.13;51.12;60322.25;6367838;22;45645;-87
2023/05/29 07:40:26;;;;;;;;;5.00;4.00;;;;;21.19;51.21;60103.09;6366699;22;47127;-84
2023/05/29 07:42:52;;;;;;;;;2.67;2.67;;;;;21.14;51.12;60008.81;6366539;22;45393;-84
2023/05/29 07:45:17;;;;;;;;;3.67;3.67;;;;;21.17;50.45;60020.00;6367222;22;45346;-85
2023/05/29 07:47:43;;;;;;;;;5.00;3.00;;;;;21.26;51.04;60070.13;6339258;22;45481;-85
2023/05/29 07:50:09;;;;;;;;;3.00;3.00;;;;;21.18;50.84;60115.47;6364640;22;46240;-85
2023/05/29 07:52:34;;;;;;;;;4.00;4.00;;;;;21.33;50.52;59985.13;6366564;22;45316;-85
2023/05/29 07:55:01;;;;;;;;;4.00;2.33;;;;;21.28;50.68;59862.34;6365449;22;45384;-86
2023/05/29 07:57:27;;;;;;;;;4.00;3.00;;;;;21.35;50.83;59885.72;6366409;22;45373;-86
2023/05/29 07:59:52;;;;;;;;;4.00;3.00;;;;;21.36;50.76;59897.50;6337528;22;46963;-84
2023/05/29 08:02:18;;;;;;;;;3.00;1.67;;;;;21.48;50.99;59710.81;6365090;22;50193;-85
2023/05/29 08:04:43;;;;;;;;;5.00;5.00;;;;;21.51;50.85;59759.53;6367227;22;45259;-85
2023/05/29 08:07:08;;;;;;;;;5.00;4.00;;;;;21.45;50.81;59716.28;6368121;22;45312;-85
2023/05/29 08:09:35;;;;;;;;;2.00;2.00;;;;;21.52;50.31;59774.00;6338948;22;47096;-84
2023/05/29 08:12:01;;;;;;;;;3.33;3.33;;;;;21.56;50.76;59834.00;6366725;22;45370;-86
2023/05/29 08:14:27;;;;;;;;;6.00;5.00;;;;;21.65;50.38;59676.84;6365974;22;45381;-85
2023/05/29 08:16:52;;;;;;;;;3.33;3.33;;;;;21.57;50.65;59722.28;6366704;22;45394;-85
2023/05/29 08:19:17;;;;;;;;;5.33;4.00;;;;;21.70;50.75;59585.34;6367244;22;46079;-85
2023/05/29 08:21:43;;;;;;;;;3.00;3.00;;;;;21.64;50.20;59472.28;6366788;22;51505;-86
2023/05/29 08:24:08;;;;;;;;;3.67;3.67;;;;;21.75;50.76;59480.44;6366821;22;45307;-85
2023/05/29 08:26:34;;;;;;;;;3.00;3.00;;;;;21.79;50.19;59379.81;6366896;22;45457;-86
2023/05/29 08:29:00;;;;;;;;;3.33;3.33;;;;;21.91;50.35;59284.19;6365914;22;47012;-85
2023/05/29 08:31:26;;;;;;;;;6.33;4.00;;;;;21.89;50.62;59134.94;6365664;22;45341;-87
2023/05/29 08:33:53;;;;;;;;;3.00;3.00;;;;;21.93;49.97;59125.59;6366975;22;45315;-87
2023/05/29 08:36:20;;;;;;;;;3.33;3.33;;;;;22.06;50.53;58966.00;6366673;22;45473;-89
2023/05/29 08:38:47;;;;;;;;;4.67;3.00;;;;;22.10;50.43;58991.56;6365782;22;46186;-86
2023/05/29 08:41:22;;;;;;;;;4.00;4.00;;;;;22.13;50.37;58901.09;6366145;22;45484;-85
2023/05/29 08:43:48;;;;;;;;;4.00;4.00;;;;;22.19;50.32;58885.22;6366159;22;45394;-85
2023/05/29 08:46:16;;;;;;;;;4.00;3.67;;;;;22.24;49.96;58836.09;6366180;22;45296;-85
2023/05/29 08:48:47;;;;;;;;;5.33;4.00;;;;;22.18;50.20;58720.31;6367092;22;47067;-85
2023/05/29 08:51:13;;;;;;;;;3.33;3.33;;;;;22.22;50.37;58708.28;6366340;22;45437;-84
2023/05/29 08:53:40;;;;;;;;;4.00;4.00;;;;;22.39;49.87;58789.56;6338750;22;45434;-85
2023/05/29 08:56:05;;;;;;;;;7.00;6.00;;;;;22.46;50.23;58656.94;6366959;22;45337;-85
2023/05/29 08:58:31;;;;;;;;;4.33;4.33;;;;;22.51;50.10;58607.75;6366028;22;47573;-86
2023/05/29 09:00:57;;;;;;;;;4.67;3.33;;;;;22.59;49.54;58484.13;6338746;22;45323;-85
2023/05/29 09:03:22;;;;;;;;;5.00;4.00;;;;;22.57;49.74;58024.63;6365840;22;45361;-87
2023/05/29 09:05:48;;;;;;;;;4.00;4.00;;;;;23.09;49.87;57578.34;6366892;22;45475;-86
2023/05/29 09:08:15;;;;;;;;;6.00;6.00;;;;;23.51;49.38;56532.03;6367167;22;46030;-88
2023/05/29 09:10:43;;;;;;;;;4.00;4.00;;;;;24.33;48.50;55250.06;6362293;22;45427;-86
2023/05/29 09:13:09;;;;;;;;;4.00;2.67;;;;;25.28;47.99;54212.34;6367099;22;45409;-87
2023/05/29 09:15:35;;;;;;;;;4.00;4.00;;;;;26.18;47.13;53376.16;6339402;22;45473;-86
2023/05/29 09:18:01;;;;;;;;;4.67;4.00;;;;;26.98;46.30;53083.56;6365730;22;46399;-86
2023/05/29 09:20:27;;;;;;;;;2.67;2.00;;;;;27.74;45.54;54267.53;6336047;22;49131;-88
2023/05/29 09:22:55;;;;;;;;;6.00;6.00;;;;;28.56;44.76;54727.84;6365265;22;45310;-84
2023/05/29 09:25:26;;;;;;;;;4.50;4.50;;;;;29.20;43.80;55623.09;6338684;22;45493;-84
2023/05/29 09:28:00;;;;;;;;;4.25;4.25;;;;;29.76;42.76;57912.25;6364449;22;45426;-84
2023/05/29 09:30:40;;;;;;;;;5.00;3.33;;;;;30.40;41.98;60087.50;6366433;22;45390;-86
2023/05/29 09:33:07;;;;;;;;;2.67;2.67;;;;;31.05;41.62;60559.34;6365989;22;45328;-81
2023/05/29 09:35:37;;;;;;;;;5.00;5.00;;;;;31.49;40.79;61728.16;6368209;22;45412;-80
2023/05/29 09:38:04;;;;;;;;;4.00;4.00;;;;;32.04;40.29;62942.44;6365575;22;45354;-80
2023/05/29 09:40:32;;;;;;;;;4.00;4.00;;;;;32.37;38.90;64645.09;6365701;22;45390;-82
2023/05/29 09:43:19;;;;;;;;;6.67;6.67;;;;;32.88;38.94;65830.81;6368231;22;45330;-80
2023/05/29 09:45:46;;;;;;;;;7.00;5.33;;;;;33.23;38.21;66616.88;6370249;22;45417;-81
2023/05/29 09:48:13;;;;;;;;;5.00;5.00;;;;;33.66;37.86;68339.38;6371253;22;46279;-82
2023/05/29 09:50:39;;;;;;;;;7.00;5.00;;;;;33.99;36.64;69470.03;6369659;22;45422;-81
2023/05/29 09:53:17;;;;;;;;;3.67;3.67;;;;;34.30;36.50;70087.16;6367774;22;45416;-80
2023/05/29 09:55:43;;;;;;;;;7.33;6.33;;;;;34.64;35.59;70496.00;6368795;22;45520;-81
2023/05/29 09:58:10;;;;;;;;;7.00;7.00;;;;;34.89;35.23;71388.75;6368108;22;45373;-81
2023/05/29 10:00:36;;;;;;;;;6.33;5.33;;;;;35.10;34.64;72199.81;6365608;22;45340;-82
2023/05/29 10:03:01;;;;;;;;;5.00;5.00;;;;;35.31;35.12;72456.19;6368547;22;45345;-92
2023/05/29 10:05:27;;;;;;;;;5.33;5.33;;;;;35.57;34.78;72853.19;6369664;22;45499;-85
2023/05/29 10:07:54;;;;;;;;;5.00;4.33;;;;;35.77;34.07;72971.00;6368258;22;46462;-84
2023/05/29 10:10:20;;;;;;;;;5.67;5.67;;;;;36.04;33.34;73340.69;6366670;22;45429;-84
2023/05/29 10:12:48;;;;;;;;;5.67;4.33;;;;;36.16;33.22;73453.66;6366928;22;45347;-84
2023/05/29 10:15:16;;;;;;;;;6.33;6.33;;;;;36.41;33.07;73702.03;6367092;22;45316;-88
2023/05/29 10:17:59;;;;;;;;;6.00;6.00;;;;;36.60;32.65;73651.34;6367371;22;46142;-86
2023/05/29 10:20:28;;;;;;;;;6.67;6.67;;;;;36.81;31.74;73963.31;6367375;22;45350;-86
2023/05/29 10:22:56;;;;;;;;;5.33;5.33;;;;;36.94;31.50;73828.44;6336909;22;45316;-86
2023/05/29 10:25:23;;;;;;;;;5.67;5.67;;;;;37.09;31.50;73948.78;6337418;22;45499;-86
2023/05/29 10:27:49;;;;;;;;;5.33;4.00;;;;;37.04;31.89;73994.97;6366935;22;46085;-86
2023/05/29 10:30:17;;;;;;;;;4.33;4.33;;;;;37.34;31.02;73904.91;6366875;22;45336;-86
2023/05/29 10:33:06;;;;;;;;;4.67;4.33;;;;;37.45;30.55;73878.78;6367998;22;45336;-85
2023/05/29 10:35:53;;;;;;;;;6.33;5.00;;;;;37.60;29.91;73654.41;6368652;22;45513;-85
2023/05/29 10:38:19;;;;;;;;;3.33;3.33;;;;;37.70;30.24;73763.63;6368581;22;45698;-84
2023/05/29 10:40:45;;;;;;;;;5.00;3.33;;;;;37.79;30.67;73899.28;6367578;22;45333;-85
2023/05/29 10:43:34;;;;;;;;;4.00;4.00;;;;;37.89;29.00;73418.50;6339097;22;45502;-87
2023/05/29 10:46:01;;;;;;;;;4.33;3.33;;;;;37.61;29.68;73586.59;6367816;22;45509;-87
2023/05/29 10:48:29;;;;;;;;;4.00;4.00;;;;;38.12;29.39;73635.19;6366866;22;46961;-82
2023/05/29 10:50:56;;;;;;;;;3.00;3.00;;;;;38.17;29.69;73737.56;6364972;22;45479;-82
2023/05/29 10:53:26;;;;;;;;;4.00;4.00;;;;;37.91;29.70;73532.19;6364302;22;45413;-81
2023/05/29 10:55:53;;;;;;;;;2.00;2.00;;;;;37.78;29.07;73187.72;6366379;22;45536;-81
2023/05/29 10:58:24;;;;;;;;;4.33;3.00;;;;;38.07;28.77;73257.81;6373652;22;46143;-83
2023/05/29 11:00:53;;;;;;;;;3.67;3.33;;;;;38.20;28.67;73031.25;6373220;22;45380;-83
2023/05/29 11:03:21;;;;;;;;;5.33;3.33;;;;;38.19;29.33;73189.78;6367388;22;45361;-83
2023/05/29 11:06:20;;;;;;;;;3.33;3.00;;;;;38.16;28.39;72766.38;6364234;22;45514;-84
2023/05/29 11:08:54;;;;;;;;;4.33;4.33;;;;;38.16;29.65;73371.31;6238060;22;47038;-81
2023/05/29 11:11:35;;;;;;;;;6.00;4.67;;;;;38.07;29.81;73362.88;6238766;22;45458;-80
2023/05/29 11:14:04;;;;;;;;;4.00;4.00;;;;;38.14;29.80;73432.41;6241605;22;45434;-85
2023/05/29 11:16:32;;;;;;;;;3.33;3.33;;;;;38.10;29.41;73311.31;6239124;22;45530;-83
2023/05/29 11:19:03;;;;;;;;;4.67;4.00;;;;;38.06;29.81;73143.22;6238033;22;45594;-85
2023/05/29 11:21:44;;;;;;;;;3.00;3.00;;;;;37.99;29.55;73126.84;6238004;22;45667;-82
2023/05/29 11:24:26;;;;;;;;;3.33;2.33;;;;;37.87;29.56;73089.88;6245770;22;45514;-82
2023/05/29 11:26:56;;;;;;;;;0.67;0.67;;;;;37.83;30.10;73140.81;6236973;22;45439;-83
2023/05/29 11:29:23;;;;;;;;;4.67;4.67;;;;;37.65;30.29;73082.56;6211890;22;47261;-85
2023/05/29 11:31:54;;;;;;;;;4.00;4.00;;;;;37.64;29.87;72996.31;6237905;22;45417;-82
2023/05/29 11:34:22;;;;;;;;;3.00;3.00;;;;;37.55;29.71;72852.59;6238109;22;45452;-88
2023/05/29 11:36:49;;;;;;;;;4.00;4.00;;;;;37.44;29.28;72720.88;6239227;22;45538;-87
2023/05/29 11:39:14;;;;;;;;;4.67;4.67;;;;;37.28;29.77;72718.31;6239278;22;46227;-82
2023/05/29 11:41:40;;;;;;;;;5.00;5.00;;;;;37.18;29.53;72623.78;6238439;22;45443;-81
2023/05/29 11:44:06;;;;;;;;;4.67;3.67;;;;;36.75;29.97;72547.19;6247843;22;45471;-82
2023/05/29 11:46:32;;;;;;;;;5.33;4.00;;;;;36.70;30.34;72443.88;6366733;22;45546;-81
2023/05/29 11:49:01;;;;;;;;;3.00;3.00;;;;;36.31;30.18;72287.47;6366010;22;46938;-80
2023/05/29 11:51:27;;;;;;;;;7.33;6.00;;;;;35.88;31.14;72117.47;6367792;22;45362;-80
2023/05/29 11:53:57;;;;;;;;;3.00;3.00;;;;;35.45;31.05;72065.38;6367344;22;45252;-82
2023/05/29 11:56:23;;;;;;;;;5.00;5.00;;;;;34.99;31.76;71895.34;6367747;22;45542;-80
2023/05/29 11:58:49;;;;;;;;;3.00;3.00;;;;;34.59;31.50;71792.06;6367593;22;46279;-81
2023/05/29 12:01:21;;;;;;;;;3.33;3.33;;;;;33.95;32.14;71653.22;6337589;22;45402;-80
2023/05/29 12:03:46;;;;;;;;;3.33;3.33;;;;;33.78;32.34;71613.25;6365852;22;45342;-80
2023/05/29 12:06:12;;;;;;;;;3.33;3.33;;;;;33.52;32.92;71560.19;6367810;22;45336;-80
2023/05/29 12:08:38;;;;;;;;;4.67;3.67;;;;;33.25;33.36;71492.22;6364515;22;45664;-80
2023/05/29 12:11:04;;;;;;;;;4.00;4.00;;;;;32.79;33.66;71397.53;6366665;22;45453;-80
2023/05/29 12:13:30;;;;;;;;;3.00;3.00;;;;;32.53;33.26;71278.25;6367394;22;45375;-80
2023/05/29 12:16:02;;;;;;;;;4.00;4.00;;;;;32.46;33.17;71341.53;6367539;22;45368;-80
2023/05/29 12:18:28;;;;;;;;;3.33;3.33;;;;;32.34;33.76;71341.25;6366811;22;45647;-83
2023/05/29 12:20:58;;;;;;;;;3.00;3.00;;;;;32.17;33.94;71192.50;6366717;22;45548;-80
2023/05/29 12:23:24;;;;;;;;;4.00;4.00;;;;;32.01;34.51;71260.03;6366557;22;45357;-81
2023/05/29 12:25:51;;;;;;;;;2.00;2.00;;;;;31.75;34.21;71189.22;6362966;22;45416;-85
2023/05/29 12:28:19;;;;;;;;;4.00;2.33;;;;;31.62;34.62;71184.38;6366728;22;46798;-83
2023/05/29 12:30:49;;;;;;;;;3.00;3.00;;;;;31.55;35.18;71195.00;6367571;22;45381;-79
2023/05/29 12:33:32;;;;;;;;;3.00;3.00;;;;;31.37;35.03;71151.25;6366506;22;45466;-81
2023/05/29 12:36:06;;;;;;;;;2.00;2.00;;;;;31.26;35.55;71089.31;6367687;22;45541;-82
2023/05/29 12:38:31;;;;;;;;;1.33;1.33;;;;;31.10;35.88;71086.91;6367492;22;46080;-83
2023/05/29 12:40:57;;;;;;;;;3.67;3.67;;;;;31.01;35.93;71046.50;6367548;22;45867;-94
2023/05/29 12:43:22;;;;;;;;;2.00;2.00;;;;;30.74;35.78;71117.56;6367986;22;45358;-84
2023/05/29 12:45:55;;;;;;;;;2.67;2.67;;;;;30.80;36.14;71010.09;6366099;22;45799;-85
2023/05/29 12:48:22;;;;;;;;;6.00;6.00;;;;;30.61;36.22;70984.94;6366594;22;47085;-86
2023/05/29 12:50:49;;;;;;;;;4.33;3.33;;;;;30.59;35.90;70911.50;6364675;22;45579;-90
2023/05/29 12:53:15;;;;;;;;;3.00;3.00;;;;;30.47;36.04;70909.09;6366301;22;45761;-84
2023/05/29 12:55:46;;;;;;;;;4.67;4.33;;;;;30.39;36.26;70825.72;6365498;22;45426;-85
2023/05/29 12:58:13;;;;;;;;;3.00;3.00;;;;;30.31;36.25;70886.41;6364476;22;47188;-82
2023/05/29 13:00:41;;;;;;;;;3.67;3.67;;;;;30.05;36.65;70832.16;6365175;22;45393;-82
2023/05/29 13:03:07;;;;;;;;;4.67;2.33;;;;;30.07;36.85;70853.69;6337393;22;45406;-83
2023/05/29 13:05:32;;;;;;;;;4.33;4.33;;;;;30.04;36.96;70855.50;6364761;22;45513;-85
2023/05/29 13:07:58;;;;;;;;;2.67;2.67;;;;;29.85;36.88;70882.22;6363567;22;46722;-87
2023/05/29 13:10:26;;;;;;;;;3.00;3.00;;;;;29.80;37.35;70785.53;6366853;22;45308;-83
2023/05/29 13:12:54;;;;;;;;;3.33;2.33;;;;;29.81;37.51;70809.16;6335531;22;45312;-83
2023/05/29 13:15:21;;;;;;;;;3.67;3.00;;;;;29.75;37.63;70741.91;6364218;22;45375;-82
2023/05/29 13:17:46;;;;;;;;;3.33;3.33;;;;;29.51;37.54;70718.31;6367186;22;46055;-82
2023/05/29 13:20:13;;;;;;;;;2.00;2.00;;;;;29.62;37.87;70713.16;6340041;22;45396;-83
2023/05/29 13:22:39;;;;;;;;;1.67;1.67;;;;;29.56;37.96;70735.28;6368105;22;45340;-79
2023/05/29 13:25:08;;;;;;;;;2.00;2.00;;;;;29.35;38.02;70650.53;6366865;22;45527;-81
2023/05/29 13:27:35;;;;;;;;;1.67;1.67;;;;;29.44;38.47;70675.03;6367937;22;46330;-87
2023/05/29 13:30:02;;;;;;;;;2.00;2.00;;;;;29.32;38.53;70688.38;6364520;22;45741;-82
2023/05/29 13:32:28;;;;;;;;;2.33;2.33;;;;;29.21;38.46;70602.13;6368030;22;45358;-84
2023/05/29 13:34:54;;;;;;;;;2.00;2.00;;;;;29.12;38.90;70626.06;6369685;22;45851;-84
2023/05/29 13:37:20;;;;;;;;;3.00;2.67;;;;;28.98;38.99;70498.66;6368716;22;46079;-86
2023/05/29 13:39:45;;;;;;;;;2.33;2.33;;;;;28.88;38.99;70562.25;6368742;22;45802;-81
2023/05/29 13:42:11;;;;;;;;;2.00;0.67;;;;;28.57;38.82;70466.19;6368271;22;45529;-81
2023/05/29 13:44:37;;;;;;;;;1.67;1.67;;;;;29.02;39.13;70508.94;6368268;22;45243;-80
2023/05/29 13:47:02;;;;;;;;;0.33;0.33;;;;;28.96;39.36;70499.00;6366991;22;46384;-83
2023/05/29 13:49:28;;;;;;;;;1.33;1.33;;;;;28.78;39.21;70439.16;6366488;22;45227;-85
2023/05/29 13:51:53;;;;;;;;;1.00;1.00;;;;;28.87;39.71;70392.19;6369971;22;45334;-93
2023/05/29 13:54:18;;;;;;;;;1.67;1.67;;;;;28.81;39.64;70410.09;6340835;22;45469;-85
2023/05/29 13:56:44;;;;;;;;;4.67;1.33;;;;;28.49;40.06;70307.44;6339151;22;47407;-83
2023/05/29 13:59:10;;;;;;;;;2.00;2.00;;;;;28.71;39.39;70384.44;6368634;22;45299;-84
2023/05/29 14:01:35;;;;;;;;;2.00;1.33;;;;;28.67;39.93;70363.28;6367609;22;45334;-84
2023/05/29 14:04:00;;;;;;;;;2.00;2.00;;;;;28.61;40.12;70264.72;6366857;22;45397;-85
2023/05/29 14:06:29;;;;;;;;;2.00;2.00;;;;;28.34;40.48;70278.50;6367555;22;47110;-85
2023/05/29 14:08:55;;;;;;;;;1.00;1.00;;;;;28.38;40.15;70218.00;6368440;22;45350;-86
2023/05/29 14:11:21;;;;;;;;;2.33;2.33;;;;;28.38;39.87;70215.28;6368022;22;45320;-87
2023/05/29 14:13:46;;;;;;;;;2.00;1.67;;;;;28.35;39.77;70201.41;6368089;22;45326;-85
2023/05/29 14:16:11;;;;;;;;;4.00;3.00;;;;;28.24;39.67;70269.16;6368359;22;56095;-88
2023/05/29 14:18:37;;;;;;;;;3.33;3.33;;;;;28.20;39.94;70156.16;6363611;22;45547;-81
2023/05/29 14:21:02;;;;;;;;;5.00;3.00;;;;;27.90;39.62;70142.47;6367176;22;45303;-81
2023/05/29 14:23:27;;;;;;;;;2.67;1.33;;;;;28.02;39.44;70140.56;6368281;22;45520;-82
2023/05/29 14:25:53;;;;;;;;;1.00;1.00;;;;;27.95;39.65;70145.75;6337511;22;48479;-82
2023/05/29 14:28:18;;;;;;;;;2.00;2.00;;;;;27.76;39.56;70115.38;6366632;22;45312;-82
2023/05/29 14:30:43;;;;;;;;;1.67;1.67;;;;;27.75;39.57;70112.06;6367308;22;45386;-82
2023/05/29 14:33:09;;;;;;;;;1.33;1.33;;;;;27.79;39.70;70143.44;6366214;22;45472;-82
2023/05/29 14:35:35;;;;;;;;;1.00;1.00;;;;;27.69;39.36;70126.59;6368037;22;45699;-81
2023/05/29 14:38:00;;;;;;;;;2.00;2.00;;;;;27.56;39.72;70081.69;6367450;22;45761;-82
2023/05/29 14:40:26;;;;;;;;;1.00;1.00;;;;;27.38;39.60;70160.59;6336788;22;45363;-82
2023/05/29 14:42:51;;;;;;;;;2.00;1.33;;;;;27.57;39.61;70023.09;6367853;22;45437;-82
2023/05/29 14:45:17;;;;;;;;;3.00;1.33;;;;;27.53;39.63;70066.63;6367447;22;47600;-85
2023/05/29 14:47:42;;;;;;;;;3.00;1.33;;;;;27.49;39.85;70099.88;6365340;22;45452;-86
2023/05/29 14:50:08;;;;;;;;;3.00;2.00;;;;;27.41;39.87;70008.75;6367810;22;45726;-85
2023/05/29 14:52:34;;;;;;;;;2.00;2.00;;;;;27.37;39.99;70140.38;6368687;22;45545;-83
2023/05/29 14:55:04;;;;;;;;;1.00;1.00;;;;;27.19;39.90;70032.44;6367635;22;46832;-83
2023/05/29 14:57:32;;;;;;;;;2.33;1.00;;;;;27.27;40.25;70017.59;6339166;22;45308;-81
2023/05/29 14:59:57;;;;;;;;;2.00;2.00;;;;;27.23;39.98;70036.63;6365674;22;45541;-83
2023/05/29 15:02:23;;;;;;;;;3.67;2.67;;;;;27.05;40.23;70002.06;6368989;22;45696;-83
2023/05/29 15:04:48;;;;;;;;;1.33;1.00;;;;;27.08;40.13;69943.78;6365401;22;46028;-85
2023/05/29 15:07:13;;;;;;;;;3.00;1.00;;;;;27.18;40.03;69990.47;6339293;22;45373;-83
2023/05/29 15:09:39;;;;;;;;;1.00;1.00;;;;;27.15;40.37;69984.78;6367977;22;45354;-84
2023/05/29 15:12:07;;;;;;;;;1.33;1.33;;;;;27.15;40.41;69916.88;6365403;22;45433;-83
2023/05/29 15:14:32;;;;;;;;;2.00;2.00;;;;;27.14;40.48;69980.88;6367707;22;46347;-85
2023/05/29 15:16:58;;;;;;;;;4.00;1.00;;;;;27.12;40.45;69977.88;6368152;22;45453;-84
2023/05/29 15:19:23;;;;;;;;;1.33;1.33;;;;;27.04;40.40;69938.41;6365122;22;45445;-83
2023/05/29 15:21:48;;;;;;;;;1.67;1.67;;;;;26.95;40.66;69917.38;6368644;22;45320;-83
2023/05/29 15:24:13;;;;;;;;;3.00;3.00;;;;;27.06;40.57;69916.97;6367150;22;46056;-83
2023/05/29 15:26:39;;;;;;;;;1.33;1.33;;;;;27.03;40.87;69910.06;6364866;22;45388;-83
2023/05/29 15:29:04;;;;;;;;;1.00;1.00;;;;;26.88;40.65;69838.41;6367325;22;45370;-83
2023/05/29 15:31:30;;;;;;;;;3.00;1.00;;;;;26.89;40.42;69831.44;6367373;22;45484;-85
2023/05/29 15:33:55;;;;;;;;;2.33;1.00;;;;;26.79;40.85;69827.63;6364984;22;46817;-89
2023/05/29 15:36:21;;;;;;;;;2.00;2.00;;;;;26.84;40.90;69877.63;6367021;22;45496;-92
2023/05/29 15:38:46;;;;;;;;;1.00;1.00;;;;;26.82;40.84;69799.25;6339090;22;45337;-90
2023/05/29 15:41:12;;;;;;;;;1.00;1.00;;;;;26.79;41.44;69797.78;6338336;22;45501;-89
2023/05/29 15:43:37;;;;;;;;;0.33;0.33;;;;;26.67;41.05;69741.19;6367067;22;46197;-87
2023/05/29 15:46:03;;;;;;;;;1.33;1.33;;;;;26.76;40.99;69794.78;6368167;22;45817;-93
2023/05/29 15:48:29;;;;;;;;;1.33;1.33;;;;;26.73;41.22;69696.81;6368226;22;45347;-91
2023/05/29 15:50:54;;;;;;;;;1.00;1.00;;;;;26.71;41.45;69737.84;6367901;22;45419;-90
2023/05/29 15:53:19;;;;;;;;;1.33;1.33;;;;;26.70;41.61;69784.88;6367777;22;46006;-88
2023/05/29 15:55:45;;;;;;;;;1.00;1.00;;;;;26.46;41.41;69632.59;6367237;22;45391;-87
2023/05/29 15:58:10;;;;;;;;;1.33;1.33;;;;;26.64;41.22;69707.16;6368451;22;45336;-89
2023/05/29 16:00:36;;;;;;;;;1.00;1.00;;;;;26.54;41.33;69709.38;6367758;22;45269;-91
2023/05/29 16:03:01;;;;;;;;;3.00;1.00;;;;;26.56;41.46;69695.50;6367529;22;46005;-88
2023/05/29 16:05:27;;;;;;;;;1.33;1.33;;;;;26.55;41.50;69656.31;6367937;22;45360;-90
2023/05/29 16:07:53;;;;;;;;;3.00;1.00;;;;;26.49;41.74;69687.69;6366009;22;45391;-88
2023/05/29 16:10:19;;;;;;;;;10.33;9.33;;;;;26.51;41.54;69694.91;6368755;22;45780;-89
2023/05/29 16:12:48;;;;;;;;;11.67;11.00;;;;;26.24;41.91;69614.44;6368995;22;45350;-91
2023/05/29 16:15:14;;;;;;;;;6.67;5.00;;;;;26.23;41.87;69608.44;6367946;22;45359;-86
2023/05/29 16:17:43;;;;;;;;;4.67;4.67;;;;;26.17;41.66;69595.84;6367911;22;45808;-90
2023/05/29 16:20:09;;;;;;;;;2.67;2.67;;;;;26.41;42.12;69669.41;6368415;22;45268;-85
2023/05/29 16:22:35;;;;;;;;;4.00;3.00;;;;;26.22;42.08;69572.00;6367588;22;46937;-88
2023/05/29 16:25:01;;;;;;;;;3.00;3.00;;;;;26.39;41.77;69569.97;6367122;22;45425;-89
2023/05/29 16:27:27;;;;;;;;;2.00;2.00;;;;;26.36;42.02;69495.88;6368832;22;45489;-89
2023/05/29 16:29:52;;;;;;;;;3.00;2.00;;;;;26.18;41.88;69531.38;6368824;22;45358;-89
2023/05/29 16:32:18;;;;;;;;;5.00;2.67;;;;;26.33;41.88;69565.53;6369238;22;53124;-85